Time;durP1;ratioP1;P1;durP2;ratioP2;P2;SDS_P1;SDS_P2;PMS_P1;PMS_P2;Temp;Humidity;BMP_temperature;BMP_pressure;BME280_temperature;BME280_humidity;BME280_pressure;Samples;Min_cycle;Max_cycle;Signal;HPM_P1;HPM_P2
2021/06/05 00:02:25;;;;;;;3.80;1.08;;;;;;;20.78;48.86;101204.38;5074696;28;20412;-31
2021/06/05 00:04:57;;;;;;;9.93;0.52;;;;;;;20.81;48.79;101196.38;5074105;28;20374;-31
2021/06/05 00:07:23;;;;;;;0.73;0.17;;;;;;;20.82;48.77;101202.56;5095327;28;20077;-31
2021/06/05 00:09:49;;;;;;;0.10;0.10;;;;;;;20.93;48.56;101206.75;5095055;28;20027;-30
2021/06/05 00:12:18;;;;;;;2.23;1.60;;;;;;;20.82;48.76;101198.13;5094883;28;20050;-34
2021/06/05 00:14:44;;;;;;;0.93;0.25;;;;;;;20.76;49.09;101200.91;5094759;28;20711;-33
2021/06/05 00:17:11;;;;;;;2.70;0.35;;;;;;;20.83;48.81;101191.03;5094694;28;20040;-31
2021/06/05 00:19:37;;;;;;;0.80;0.20;;;;;;;20.84;48.78;101192.75;5073774;28;20025;-31
2021/06/05 00:22:04;;;;;;;0.20;0.10;;;;;;;20.76;48.76;101177.00;5074591;28;20039;-31
2021/06/05 00:24:30;;;;;;;7.13;0.25;;;;;;;20.83;48.88;101202.50;5074595;28;20027;-32
2021/06/05 00:26:56;;;;;;;0.70;0.30;;;;;;;20.83;48.81;101193.69;5074494;28;20040;-30
2021/06/05 00:29:22;;;;;;;8.27;0.70;;;;;;;20.83;48.79;101193.69;5074637;28;20099;-31
2021/06/05 00:31:49;;;;;;;1.93;0.77;;;;;;;20.82;48.77;101192.81;5074320;28;20039;-31
2021/06/05 00:34:15;;;;;;;0.13;0.13;;;;;;;20.78;48.81;101188.47;5074579;28;20638;-31
2021/06/05 00:36:41;;;;;;;3.20;0.53;;;;;;;20.83;48.76;101183.06;5074377;28;20016;-31
2021/06/05 00:39:08;;;;;;;0.75;0.60;;;;;;;20.84;48.83;101179.50;5064740;28;20024;-32
2021/06/05 00:41:34;;;;;;;5.18;0.57;;;;;;;20.81;48.80;101169.81;5064799;28;20021;-32
2021/06/05 00:44:02;;;;;;;0.73;0.25;;;;;;;20.85;48.78;101170.66;5054175;28;20075;-31
2021/06/05 00:46:29;;;;;;;0.08;0.08;;;;;;;20.92;48.73;101169.59;5054821;28;20026;-30
2021/06/05 00:48:55;;;;;;;0.17;0.17;;;;;;;21.00;48.40;101178.28;5074329;28;20029;-33
2021/06/05 00:51:49;;;;;;;2.88;0.47;;;;;;;20.95;48.39;101177.53;5074566;28;20422;-31
2021/06/05 00:54:15;;;;;;;0.40;0.40;;;;;;;20.89;48.58;101175.88;5064192;28;20020;-31
2021/06/05 00:56:42;;;;;;;2.85;1.02;;;;;;;20.90;48.49;101172.28;5053263;28;20079;-31
2021/06/05 00:59:08;;;;;;;5.47;1.40;;;;;;;20.96;48.35;101171.28;5055684;28;20021;-32
2021/06/05 01:01:35;;;;;;;0.60;0.25;;;;;;;20.97;48.09;101179.22;5058254;28;20105;-30
2021/06/05 01:04:01;;;;;;;1.98;0.30;;;;;;;21.08;48.08;101181.69;5058126;28;20332;-31
2021/06/05 01:07:14;;;;;;;0.47;0.20;;;;;;;21.04;47.90;101177.34;5058300;28;20082;-33
2021/06/05 01:09:56;;;;;;;0.47;0.28;;;;;;;21.03;48.14;101180.91;5054328;28;20064;-31
2021/06/05 01:12:48;;;;;;;10.23;1.40;;;;;;;21.09;47.93;101179.91;5057125;28;20029;-31
2021/06/05 01:15:27;;;;;;;0.80;0.47;;;;;;;21.10;47.93;101179.84;5044202;28;20385;-32
2021/06/05 01:18:23;;;;;;;1.48;0.68;;;;;;;21.11;47.80;101181.59;5057109;28;20033;-31
2021/06/05 01:21:12;;;;;;;0.98;0.68;;;;;;;21.05;47.83;101178.19;5055389;28;20041;-33
2021/06/05 01:23:58;;;;;;;0.82;0.10;;;;;;;20.93;47.89;101163.38;5056720;28;20024;-31
2021/06/05 01:26:34;;;;;;;0.20;0.20;;;;;;;21.00;48.02;101172.97;5057240;28;20024;-31
2021/06/05 01:29:12;;;;;;;3.50;1.45;;;;;;;21.03;47.75;101172.03;5057002;28;20028;-32
2021/06/05 01:31:40;;;;;;;1.88;0.63;;;;;;;20.90;47.65;101166.97;5057650;28;20537;-31
2021/06/05 01:34:07;;;;;;;4.85;1.20;;;;;;;20.83;47.81;101151.19;5056687;28;20370;-31
2021/06/05 01:36:34;;;;;;;3.27;1.63;;;;;;;20.88;47.72;101162.59;5056919;28;20112;-31
2021/06/05 01:39:06;;;;;;;1.80;1.35;;;;;;;20.82;47.79;101162.72;5056671;28;20036;-33
2021/06/05 01:41:33;;;;;;;10.05;1.45;;;;;;;20.87;47.58;101177.66;5056786;28;20363;-31
2021/06/05 01:43:59;;;;;;;1.38;0.88;;;;;;;20.92;47.42;101183.75;5056396;28;20454;-31
2021/06/05 01:46:31;;;;;;;1.08;0.35;;;;;;;20.81;48.24;101184.88;5056770;28;20032;-31
2021/06/05 01:48:57;;;;;;;14.82;1.33;;;;;;;20.94;47.21;101181.09;5076000;28;20024;-33
2021/06/05 01:51:23;;;;;;;1.33;0.23;;;;;;;20.86;47.64;101178.56;5076626;28;20030;-32
2021/06/05 01:53:55;;;;;;;0.10;0.10;;;;;;;20.79;47.66;101161.00;5076293;28;20096;-32
2021/06/05 01:56:59;;;;;;;11.98;0.30;;;;;;;20.85;47.22;101190.09;5076605;28;20435;-31
2021/06/05 01:59:25;;;;;;;0.85;0.82;;;;;;;20.77;47.54;101194.69;5039192;28;20033;-31
2021/06/05 02:01:52;;;;;;;17.33;1.00;;;;;;;20.73;47.41;101200.06;5072959;28;20040;-31
2021/06/05 02:04:18;;;;;;;1.45;1.02;;;;;;;20.68;47.53;101206.34;5077118;28;20107;-32
2021/06/05 02:06:45;;;;;;;4.15;1.00;;;;;;;20.74;47.35;101196.50;5077030;28;20070;-31
2021/06/05 02:09:12;;;;;;;16.45;1.45;;;;;;;20.74;47.73;101201.81;5076208;28;20033;-31
2021/06/05 02:11:57;;;;;;;0.00;0.00;;;;;;;20.69;47.33;101197.47;5058136;28;20087;-30
2021/06/05 02:14:34;;;;;;;7.13;1.30;;;;;;;20.70;47.18;101201.91;5074402;28;20111;-31
2021/06/05 02:17:00;;;;;;;1.90;1.20;;;;;;;20.77;47.39;101199.13;5075642;28;20013;-30
2021/06/05 02:19:36;;;;;;;5.30;1.50;;;;;;;20.80;47.12;101197.28;5058994;28;20458;-31
2021/06/05 02:22:05;;;;;;;2.25;0.95;;;;;;;20.77;47.37;101205.31;5059973;28;20265;-31
2021/06/05 02:24:35;;;;;;;1.15;0.43;;;;;;;20.69;47.50;101193.94;5075970;28;20028;-32
2021/06/05 02:27:01;;;;;;;3.50;1.15;;;;;;;20.64;47.37;101188.72;5075348;28;20048;-30
2021/06/05 02:29:29;;;;;;;4.00;0.83;;;;;;;20.58;47.35;101188.84;5075753;28;20097;-31
2021/06/05 02:31:56;;;;;;;2.72;1.50;;;;;;;20.55;47.47;101196.84;5075649;28;20112;-31
2021/06/05 02:34:24;;;;;;;0.20;0.10;;;;;;;20.60;47.01;101199.41;5059335;28;20052;-31
2021/06/05 02:36:51;;;;;;;6.05;1.15;;;;;;;20.63;47.21;101202.91;5059081;28;20107;-32
2021/06/05 02:39:21;;;;;;;1.98;1.55;;;;;;;20.57;47.42;101183.56;5059073;28;20047;-30
2021/06/05 02:41:48;;;;;;;3.63;0.77;;;;;;;20.56;47.26;101185.34;5075432;28;20116;-32
2021/06/05 02:44:15;;;;;;;1.40;1.00;;;;;;;20.59;47.35;101193.25;5076290;28;20039;-30
2021/06/05 02:46:42;;;;;;;3.42;0.13;;;;;;;20.55;47.44;101194.19;5058030;28;20038;-31
2021/06/05 02:49:17;;;;;;;4.20;1.63;;;;;;;20.52;47.34;101194.28;5075381;28;20100;-32
2021/06/05 02:51:46;;;;;;;20.42;1.70;;;;;;;20.49;47.71;101194.31;5075506;28;20040;-30
2021/06/05 02:54:12;;;;;;;1.38;0.70;;;;;;;20.48;47.46;101187.25;5076062;28;20472;-31
2021/06/05 02:56:38;;;;;;;3.90;0.83;;;;;;;20.43;47.49;101189.09;5076258;28;20040;-32
2021/06/05 02:59:05;;;;;;;4.30;1.00;;;;;;;20.45;47.00;101193.44;5076470;28;20024;-31
2021/06/05 03:01:31;;;;;;;0.65;0.30;;;;;;;20.54;46.84;101188.91;5076073;28;20359;-31
2021/06/05 03:03:57;;;;;;;8.00;1.50;;;;;;;20.52;47.07;101193.41;5076021;28;20081;-30
2021/06/05 03:06:23;;;;;;;6.63;1.55;;;;;;;20.49;47.18;101199.63;5074950;28;20454;-32
2021/06/05 03:08:49;;;;;;;0.73;0.20;;;;;;;20.45;47.10;101205.84;5073708;28;20085;-31
2021/06/05 03:11:19;;;;;;;1.87;0.87;;;;;;;20.39;47.33;101198.88;5054082;28;20122;-31
2021/06/05 03:13:45;;;;;;;0.43;0.28;;;;;;;20.39;47.58;101196.22;5054592;28;20443;-31
2021/06/05 03:16:12;;;;;;;2.87;0.53;;;;;;;20.39;47.37;101206.84;5053730;28;20477;-31
2021/06/05 03:18:38;;;;;;;0.95;0.55;;;;;;;20.44;47.15;101209.41;5075320;28;20420;-31
2021/06/05 03:21:05;;;;;;;10.43;1.23;;;;;;;20.36;47.27;101211.31;5074557;28;20038;-32
2021/06/05 03:23:32;;;;;;;7.38;1.67;;;;;;;20.34;47.61;101223.75;5074631;28;20695;-31
2021/06/05 03:25:58;;;;;;;1.30;1.20;;;;;;;20.35;47.29;101222.84;5073924;28;20036;-30
2021/06/05 03:28:26;;;;;;;2.67;0.57;;;;;;;20.32;47.08;101220.22;5075631;28;20039;-31
2021/06/05 03:30:52;;;;;;;2.95;0.30;;;;;;;20.35;47.24;101222.84;5075647;28;20031;-33
2021/06/05 03:33:20;;;;;;;6.10;0.57;;;;;;;20.38;47.03;101231.63;5075547;28;20389;-31
2021/06/05 03:35:46;;;;;;;13.15;0.98;;;;;;;20.27;47.42;101214.13;5075226;28;20095;-31
2021/06/05 03:38:12;;;;;;;9.95;0.55;;;;;;;20.34;47.22;101221.09;5058213;28;20432;-32
2021/06/05 03:40:39;;;;;;;0.75;0.43;;;;;;;20.32;47.37;101217.56;5075454;28;20036;-32
2021/06/05 03:43:05;;;;;;;5.80;1.13;;;;;;;20.27;47.51;101212.38;5075515;28;20074;-33
2021/06/05 03:45:32;;;;;;;7.50;1.38;;;;;;;20.26;47.44;101215.91;5074956;28;20382;-31
2021/06/05 03:47:59;;;;;;;0.30;0.23;;;;;;;20.27;47.34;101216.78;5075019;28;20343;-31
2021/06/05 03:50:35;;;;;;;3.50;0.88;;;;;;;20.24;47.48;101214.19;5064414;28;20481;-31
2021/06/05 03:53:01;;;;;;;7.97;0.40;;;;;;;20.28;47.17;101210.59;5063813;28;20040;-30
2021/06/05 03:55:27;;;;;;;2.97;1.03;;;;;;;20.26;47.36;101218.56;5074430;28;20016;-32
2021/06/05 03:57:58;;;;;;;0.80;0.70;;;;;;;20.25;46.88;101223.88;5074880;28;20063;-30
2021/06/05 04:00:27;;;;;;;7.25;0.40;;;;;;;20.28;47.06;101234.47;5061273;28;20033;-31
2021/06/05 04:02:53;;;;;;;2.53;1.55;;;;;;;19.89;47.22;101168.78;5063969;28;20028;-32
2021/06/05 04:05:19;;;;;;;0.10;0.10;;;;;;;20.23;47.18;101233.66;5062567;28;20417;-31
2021/06/05 04:07:45;;;;;;;1.40;0.67;;;;;;;20.23;47.10;101228.34;5056136;28;20029;-31
2021/06/05 04:10:12;;;;;;;0.43;0.43;;;;;;;20.14;47.30;101227.59;5074830;28;20028;-32
2021/06/05 04:12:38;;;;;;;2.72;0.93;;;;;;;20.19;47.13;101239.00;5059593;28;20391;-31
2021/06/05 04:15:08;;;;;;;7.28;1.80;;;;;;;20.22;47.06;101243.38;5054330;28;20036;-32
2021/06/05 04:17:34;;;;;;;1.15;0.45;;;;;;;20.13;47.40;101249.72;5057601;28;20016;-31
2021/06/05 04:20:00;;;;;;;0.40;0.40;;;;;;;20.19;46.97;101251.41;5074435;28;20427;-31
2021/06/05 04:22:26;;;;;;;2.90;1.20;;;;;;;20.13;46.98;101249.72;5074356;28;20032;-31
2021/06/05 04:24:52;;;;;;;1.50;0.82;;;;;;;20.15;46.98;101255.00;5074131;28;20265;-32
2021/06/05 04:27:18;;;;;;;4.25;1.45;;;;;;;20.15;47.16;101247.91;5074409;28;20024;-33
2021/06/05 04:29:45;;;;;;;10.93;0.57;;;;;;;20.10;47.24;101249.75;5074551;28;20039;-31
2021/06/05 04:32:11;;;;;;;5.32;1.20;;;;;;;20.09;47.27;101257.75;5074504;28;20059;-31
2021/06/05 04:34:37;;;;;;;2.93;0.97;;;;;;;20.11;47.31;101245.31;5073854;28;20036;-32
2021/06/05 04:37:04;;;;;;;0.47;0.43;;;;;;;20.08;47.21;101246.28;5074206;28;20017;-31
2021/06/05 04:39:30;;;;;;;1.77;0.77;;;;;;;20.10;47.29;101251.53;5087817;28;20063;-32
2021/06/05 04:41:56;;;;;;;0.37;0.37;;;;;;;20.08;47.37;101258.63;5081384;28;20115;-30
2021/06/05 04:44:22;;;;;;;0.80;0.43;;;;;;;20.08;47.32;101261.28;5074595;28;20283;-31
2021/06/05 04:46:48;;;;;;;1.20;0.50;;;;;;;20.05;46.98;101267.53;5073985;28;20714;-31
2021/06/05 04:49:15;;;;;;;3.13;0.47;;;;;;;20.11;47.17;101278.03;5073909;28;20025;-30
2021/06/05 04:51:41;;;;;;;1.40;0.50;;;;;;;20.15;47.16;101262.94;5073782;28;20020;-31
2021/06/05 04:54:07;;;;;;;3.23;0.53;;;;;;;20.13;47.09;101270.94;5074443;28;20420;-31
2021/06/05 04:56:37;;;;;;;5.32;0.35;;;;;;;20.07;47.15;101272.78;5074306;28;20473;-30
2021/06/05 04:59:04;;;;;;;4.22;0.77;;;;;;;20.06;47.19;101287.84;5074169;28;20089;-31
2021/06/05 05:01:30;;;;;;;0.50;0.50;;;;;;;19.98;47.33;101276.44;5074180;28;20060;-32
2021/06/05 05:03:57;;;;;;;1.55;0.85;;;;;;;19.98;47.29;101287.06;5074215;28;20459;-30
2021/06/05 05:06:23;;;;;;;5.03;1.47;;;;;;;20.00;47.41;101289.72;5074048;28;20344;-31
2021/06/05 05:08:49;;;;;;;12.70;0.63;;;;;;;20.03;47.15;101284.34;5073703;28;20040;-32
2021/06/05 05:11:16;;;;;;;0.70;0.55;;;;;;;19.96;47.21;101286.22;5074212;28;20028;-30
2021/06/05 05:13:42;;;;;;;2.00;0.82;;;;;;;19.94;47.25;101280.94;5073947;28;20454;-32
2021/06/05 05:16:08;;;;;;;1.70;1.10;;;;;;;19.99;47.00;101286.19;5069935;28;20093;-31
2021/06/05 05:18:35;;;;;;;1.08;0.95;;;;;;;19.98;46.94;101288.84;5074056;28;20093;-31
2021/06/05 05:21:01;;;;;;;0.00;0.00;;;;;;;20.01;46.99;101291.47;5074073;28;20417;-31
2021/06/05 05:23:28;;;;;;;2.70;1.08;;;;;;;19.93;47.26;101289.78;5074013;28;20017;-31
2021/06/05 05:25:56;;;;;;;1.17;0.82;;;;;;;19.91;47.28;101294.25;5073861;28;20025;-32
2021/06/05 05:28:22;;;;;;;0.63;0.25;;;;;;;19.90;47.29;101291.63;5073851;28;20024;-31
2021/06/05 05:30:51;;;;;;;1.10;0.57;;;;;;;19.95;47.09;101287.13;5074086;28;20118;-31
2021/06/05 05:33:18;;;;;;;0.52;0.52;;;;;;;19.89;47.23;101289.84;5074166;28;20099;-32
2021/06/05 05:35:45;;;;;;;7.80;1.10;;;;;;;19.93;47.05;101292.44;5073892;28;20043;-32
2021/06/05 05:38:11;;;;;;;0.75;0.40;;;;;;;19.90;47.28;101288.97;5073756;28;20039;-31
2021/06/05 05:40:38;;;;;;;12.70;2.07;;;;;;;19.83;47.35;101290.81;5073964;28;20462;-32
2021/06/05 05:43:04;;;;;;;0.38;0.38;;;;;;;19.87;47.05;101289.00;5073852;28;20363;-31
2021/06/05 05:45:30;;;;;;;9.13;1.55;;;;;;;19.88;47.05;101290.75;5075320;28;20447;-31
2021/06/05 05:47:57;;;;;;;1.48;0.50;;;;;;;19.90;47.01;101294.28;5076995;28;20043;-31
2021/06/05 05:50:24;;;;;;;8.02;0.93;;;;;;;19.87;47.38;101292.53;5077485;28;20032;-33
2021/06/05 05:52:50;;;;;;;8.32;1.13;;;;;;;19.86;47.29;101293.44;5077376;28;20058;-30
2021/06/05 05:55:16;;;;;;;2.13;0.15;;;;;;;19.80;47.10;101284.69;5077436;28;20090;-31
2021/06/05 05:57:42;;;;;;;24.07;2.37;;;;;;;19.84;47.27;101281.94;5076217;28;20450;-31
2021/06/05 06:00:13;;;;;;;6.07;0.25;;;;;;;19.86;47.21;101288.13;5077183;28;20086;-30
2021/06/05 06:02:40;;;;;;;2.70;0.57;;;;;;;19.84;46.96;101287.25;5077370;28;20028;-31
2021/06/05 06:05:07;;;;;;;4.53;0.50;;;;;;;19.77;47.18;101292.69;5077146;28;20017;-31
2021/06/05 06:07:33;;;;;;;;;;;;;;;19.71;47.36;101282.16;5077443;28;20029;-31
2021/06/05 06:09:59;;;;;;;1.05;0.32;;;;;;;19.81;47.20;101289.97;5077057;28;19919;-33
2021/06/05 06:12:25;;;;;;;2.70;0.70;;;;;;;19.83;47.13;101285.50;5077019;28;20036;-31
2021/06/05 06:14:52;;;;;;;1.40;0.47;;;;;;;19.80;47.30;101292.66;5092933;28;20029;-31
2021/06/05 06:17:18;;;;;;;16.70;0.90;;;;;;;19.84;47.19;101294.34;5076838;28;20017;-32
2021/06/05 06:19:44;;;;;;;2.40;0.75;;;;;;;19.76;47.11;101297.09;5076699;28;20074;-31
2021/06/05 06:22:10;;;;;;;3.63;2.17;;;;;;;19.73;47.13;101293.59;5076976;28;20051;-32
2021/06/05 06:24:36;;;;;;;13.47;0.40;;;;;;;19.79;47.19;101299.69;5076835;28;20024;-31
2021/06/05 06:27:03;;;;;;;3.53;0.95;;;;;;;19.75;47.20;101289.16;5076775;28;20024;-31
2021/06/05 06:29:31;;;;;;;10.18;2.15;;;;;;;19.71;47.16;101296.28;5076521;28;20025;-32
2021/06/05 06:31:58;;;;;;;1.45;0.47;;;;;;;19.72;47.20;101292.75;5076536;28;20025;-31
2021/06/05 06:34:26;;;;;;;0.50;0.30;;;;;;;19.68;47.13;101289.25;5076754;28;20017;-34
2021/06/05 06:36:53;;;;;;;3.55;1.15;;;;;;;19.69;47.16;101293.63;5075570;28;20025;-30
2021/06/05 06:39:19;;;;;;;1.00;0.57;;;;;;;19.74;47.01;101285.63;5076418;28;20043;-30
2021/06/05 06:41:45;;;;;;;0.20;0.20;;;;;;;19.73;47.09;101273.28;5076513;28;20028;-31
2021/06/05 06:44:11;;;;;;;6.45;0.43;;;;;;;19.75;47.14;101273.25;5076582;28;20027;-31
2021/06/05 06:46:44;;;;;;;2.60;0.28;;;;;;;19.67;47.18;101263.63;5076345;28;20032;-31
2021/06/05 06:49:11;;;;;;;7.13;0.57;;;;;;;19.63;47.04;101269.88;5059196;28;20028;-31
2021/06/05 06:51:37;;;;;;;4.07;2.03;;;;;;;19.64;47.15;101270.75;5075439;28;20028;-31
2021/06/05 06:54:07;;;;;;;4.63;1.77;;;;;;;19.66;46.95;101269.84;5076342;28;20024;-31
2021/06/05 06:56:33;;;;;;;2.40;1.48;;;;;;;19.62;47.08;101272.56;5074881;28;20520;-30
2021/06/05 06:58:59;;;;;;;14.50;0.82;;;;;;;19.58;47.33;101270.81;5076029;28;20115;-31
2021/06/05 07:01:26;;;;;;;2.08;1.25;;;;;;;19.64;46.95;101276.91;5065399;28;20447;-31
2021/06/05 07:03:52;;;;;;;4.03;1.45;;;;;;;19.59;47.15;101277.84;5054608;28;20029;-31
2021/06/05 07:06:19;;;;;;;2.60;1.03;;;;;;;19.59;47.00;101281.38;5055955;28;20439;-32
2021/06/05 07:08:45;;;;;;;0.00;0.00;;;;;;;19.60;47.17;101277.84;5056247;28;20459;-30
2021/06/05 07:11:22;;;;;;;5.93;2.13;;;;;;;19.59;47.21;101284.03;5056087;28;20068;-32
2021/06/05 07:13:49;;;;;;;5.65;2.08;;;;;;;19.55;47.30;101287.59;5055834;28;20044;-30
2021/06/05 07:16:15;;;;;;;13.07;0.93;;;;;;;19.64;46.93;101276.91;5055435;28;20021;-30
2021/06/05 07:18:41;;;;;;;14.23;2.00;;;;;;;19.58;47.19;101281.41;5055640;28;20561;-31
2021/06/05 07:21:26;;;;;;;3.40;0.60;;;;;;;19.61;47.02;101274.34;5055770;28;20336;-31
2021/06/05 07:23:52;;;;;;;2.13;0.45;;;;;;;19.50;47.43;101273.53;5055729;28;20359;-31
2021/06/05 07:26:22;;;;;;;0.87;0.53;;;;;;;19.54;47.17;101277.91;5055717;28;20443;-33
2021/06/05 07:28:51;;;;;;;5.78;1.08;;;;;;;19.53;47.21;101262.91;5054881;28;20486;-31
2021/06/05 07:31:23;;;;;;;6.85;1.30;;;;;;;19.55;47.14;101261.09;5055645;28;20029;-30
2021/06/05 07:33:50;;;;;;;5.35;1.27;;;;;;;19.54;47.27;101263.78;5054708;28;20458;-32
2021/06/05 07:36:22;;;;;;;6.53;1.88;;;;;;;19.52;47.18;101269.13;5055550;28;20552;-30
2021/06/05 07:38:48;;;;;;;0.73;0.73;;;;;;;19.57;47.12;101269.06;5055302;28;20016;-32
2021/06/05 07:41:15;;;;;;;3.67;0.63;;;;;;;19.50;46.96;101270.00;5055484;28;20336;-30
2021/06/05 07:43:41;;;;;;;4.60;0.80;;;;;;;19.48;47.10;101266.53;5055361;28;20032;-31
2021/06/05 07:46:07;;;;;;;3.10;1.58;;;;;;;19.50;47.09;101264.72;5054847;28;20040;-32
2021/06/05 07:48:35;;;;;;;1.35;0.55;;;;;;;19.49;47.13;101266.50;5055413;28;20025;-33
2021/06/05 07:51:01;;;;;;;2.17;0.75;;;;;;;19.45;47.26;101267.41;5055052;28;20105;-32
2021/06/05 07:53:27;;;;;;;4.78;1.95;;;;;;;19.42;47.24;101254.22;5055202;28;20086;-32
2021/06/05 07:55:53;;;;;;;5.70;1.13;;;;;;;19.40;47.32;101251.59;5055167;28;20088;-31
2021/06/05 07:58:19;;;;;;;1.40;0.30;;;;;;;19.32;47.25;101237.56;5055189;28;20043;-31
2021/06/05 08:00:46;;;;;;;0.20;0.20;;;;;;;19.47;47.00;101249.75;5054966;28;20358;-31
2021/06/05 08:03:12;;;;;;;0.65;0.43;;;;;;;19.39;47.27;101243.66;5055234;28;20359;-30
2021/06/05 08:05:39;;;;;;;5.50;1.27;;;;;;;19.43;47.21;101255.97;5054925;28;20033;-30
2021/06/05 08:08:06;;;;;;;5.88;0.75;;;;;;;19.40;47.21;101256.88;5054483;28;20055;-31
2021/06/05 08:10:32;;;;;;;2.15;0.47;;;;;;;19.43;47.19;101261.28;5054426;28;20055;-31
2021/06/05 08:12:58;;;;;;;3.00;1.90;;;;;;;19.40;47.22;101264.81;5054753;28;20052;-31
2021/06/05 08:15:27;;;;;;;0.40;0.30;;;;;;;19.41;47.06;101255.97;5054826;28;20024;-31
2021/06/05 08:17:53;;;;;;;4.90;1.20;;;;;;;19.39;47.03;101248.97;5059589;28;20105;-33
2021/06/05 08:20:23;;;;;;;0.97;0.80;;;;;;;19.34;47.12;101246.38;5074661;28;20158;-31
2021/06/05 08:22:49;;;;;;;4.65;0.43;;;;;;;19.36;47.15;101256.94;5074785;28;20130;-31
2021/06/05 08:25:15;;;;;;;0.87;0.67;;;;;;;19.33;47.20;101251.69;5075051;28;20465;-33
2021/06/05 08:27:43;;;;;;;5.00;0.63;;;;;;;19.38;47.05;101253.38;5074698;28;20031;-30
2021/06/05 08:30:18;;;;;;;1.20;0.20;;;;;;;19.33;47.23;101251.69;5073551;28;20472;-31
2021/06/05 08:32:44;;;;;;;1.83;1.58;;;;;;;19.38;47.03;101252.50;5074899;28;20032;-31
2021/06/05 08:35:10;;;;;;;2.72;1.45;;;;;;;19.32;47.25;101248.19;5074750;28;20020;-31
2021/06/05 08:37:37;;;;;;;11.40;0.75;;;;;;;19.25;47.11;101241.19;5069162;28;20021;-31
2021/06/05 08:40:07;;;;;;;6.45;2.33;;;;;;;19.32;47.07;101241.97;5054362;28;20025;-31
2021/06/05 08:42:46;;;;;;;0.40;0.40;;;;;;;19.27;47.14;101242.03;5054827;28;20102;-31
2021/06/05 08:45:13;;;;;;;2.92;0.85;;;;;;;19.30;47.21;101244.66;5054644;28;20016;-31
2021/06/05 08:47:39;;;;;;;3.10;0.57;;;;;;;19.29;47.34;101236.72;5053468;28;20088;-31
2021/06/05 08:50:13;;;;;;;4.18;0.57;;;;;;;19.28;47.21;101238.50;5054296;28;20324;-31
2021/06/05 08:52:54;;;;;;;1.48;0.57;;;;;;;19.21;47.20;101226.22;5054550;28;20032;-31
2021/06/05 08:55:29;;;;;;;1.35;0.80;;;;;;;19.29;47.16;101237.59;5054472;28;20103;-35
2021/06/05 08:58:28;;;;;;;1.77;0.38;;;;;;;19.32;47.08;101252.56;5053449;28;20431;-31
2021/06/05 09:00:57;;;;;;;7.63;0.93;;;;;;;19.32;46.87;101257.88;5039559;28;20498;-31
2021/06/05 09:03:25;;;;;;;0.93;0.80;;;;;;;19.26;47.17;101260.59;5053467;28;20175;-33
2021/06/05 09:06:15;;;;;;;2.92;0.90;;;;;;;19.26;47.00;101257.94;5054224;28;20450;-32
2021/06/05 09:08:41;;;;;;;1.25;0.40;;;;;;;19.23;47.11;101257.97;5053744;28;20348;-31
2021/06/05 09:11:07;;;;;;;21.17;1.17;;;;;;;19.17;47.20;101248.34;5056331;28;20029;-30
2021/06/05 09:13:34;;;;;;;1.95;0.88;;;;;;;19.13;47.51;101263.41;5094444;28;20039;-32
2021/06/05 09:16:24;;;;;;;0.80;0.47;;;;;;;19.23;47.17;101268.56;5094274;28;20035;-30
2021/06/05 09:18:53;;;;;;;3.80;1.05;;;;;;;19.25;47.15;101269.44;5072108;28;20028;-31
2021/06/05 09:21:27;;;;;;;2.83;0.88;;;;;;;19.17;47.27;101272.16;5076966;28;20030;-33
2021/06/05 09:23:53;;;;;;;11.98;1.42;;;;;;;19.22;47.06;101274.75;5077981;28;20047;-31
2021/06/05 09:26:25;;;;;;;2.28;1.08;;;;;;;19.22;47.02;101269.47;5077991;28;20021;-31
2021/06/05 09:29:27;;;;;;;1.13;0.28;;;;;;;19.22;46.98;101261.53;5078158;28;20048;-31
2021/06/05 09:32:04;;;;;;;1.15;0.95;;;;;;;19.16;46.88;101258.06;5077520;28;20036;-31
2021/06/05 09:34:33;;;;;;;6.63;1.08;;;;;;;19.12;47.33;101256.31;5077107;28;20024;-31
2021/06/05 09:37:01;;;;;;;3.47;1.10;;;;;;;19.13;47.23;101265.16;5078068;28;20449;-31
2021/06/05 09:39:42;;;;;;;5.80;0.95;;;;;;;19.04;47.69;101273.22;5076882;28;20028;-30
2021/06/05 09:42:11;;;;;;;9.82;1.95;;;;;;;19.07;47.39;101263.44;5077659;28;20031;-31
2021/06/05 09:44:45;;;;;;;3.70;1.15;;;;;;;19.02;47.60;101249.38;5077673;28;20035;-33
2021/06/05 09:47:18;;;;;;;3.70;1.45;;;;;;;19.08;47.49;101254.59;5060601;28;20054;-31
2021/06/05 09:49:46;;;;;;;2.80;0.65;;;;;;;19.05;47.35;101249.38;5077605;28;20052;-31
2021/06/05 09:52:21;;;;;;;0.57;0.50;;;;;;;19.05;47.35;101238.78;5077519;28;20020;-31
2021/06/05 09:54:52;;;;;;;0.30;0.30;;;;;;;19.11;47.16;101236.03;5076725;28;20118;-31
2021/06/05 09:57:31;;;;;;;2.65;1.90;;;;;;;19.12;46.88;101231.63;5076826;28;20016;-30
2021/06/05 10:00:12;;;;;;;10.00;1.02;;;;;;;19.08;47.48;101225.47;5077308;28;20405;-33
2021/06/05 10:02:48;;;;;;;5.38;1.35;;;;;;;18.97;47.39;101223.84;5077211;28;20021;-30
2021/06/05 10:05:20;;;;;;;3.72;1.10;;;;;;;19.06;47.50;101231.69;5076435;28;20035;-31
2021/06/05 10:07:46;;;;;;;1.13;0.73;;;;;;;19.05;47.34;101227.31;5077250;28;20496;-33
2021/06/05 10:10:23;;;;;;;4.78;0.43;;;;;;;18.99;47.55;101227.34;5077252;28;20035;-32
2021/06/05 10:12:50;;;;;;;6.53;1.40;;;;;;;19.13;47.16;101218.38;5076059;28;20055;-31
2021/06/05 10:15:18;;;;;;;18.27;2.00;;;;;;;18.87;47.35;101202.78;5076336;28;20086;-30
2021/06/05 10:17:54;;;;;;;2.38;0.30;;;;;;;19.00;47.41;101214.13;5075958;28;20110;-31
2021/06/05 10:20:46;;;;;;;0.40;0.32;;;;;;;19.06;47.13;101211.38;5076237;28;20028;-31
2021/06/05 10:23:14;;;;;;;4.15;0.38;;;;;;;19.04;47.04;101209.66;5076091;28;20090;-30
2021/06/05 10:25:46;;;;;;;1.83;0.55;;;;;;;19.03;47.02;101200.81;5075969;28;20075;-31
2021/06/05 10:28:20;;;;;;;2.70;0.90;;;;;;;18.93;47.27;101196.53;5059740;28;20405;-32
2021/06/05 10:30:54;;;;;;;8.70;0.35;;;;;;;18.85;47.44;101196.63;5076744;28;20020;-33
2021/06/05 10:33:42;;;;;;;0.85;0.20;;;;;;;18.94;47.21;101206.22;5075231;28;20032;-31
2021/06/05 10:36:24;;;;;;;;;;;;;;;18.93;47.52;101215.94;5077156;28;20043;-33
2021/06/05 10:39:08;;;;;;;3.20;0.50;;;;;;;18.99;47.41;101219.41;5076771;28;20373;-31
2021/06/05 10:41:43;;;;;;;13.77;1.77;;;;;;;18.93;47.23;101215.94;5075975;28;20056;-31
2021/06/05 10:44:10;;;;;;;8.80;1.35;;;;;;;18.91;47.44;101212.44;5075812;28;20048;-30
2021/06/05 10:46:51;;;;;;;3.22;1.40;;;;;;;18.91;47.52;101217.75;5076433;28;20031;-31
2021/06/05 10:49:29;;;;;;;2.42;0.52;;;;;;;18.97;47.08;101226.50;5075780;28;20024;-30
2021/06/05 10:52:25;;;;;;;1.45;0.85;;;;;;;18.95;47.07;101239.78;5076258;28;20404;-31
2021/06/05 10:54:58;;;;;;;5.05;1.40;;;;;;;18.96;46.90;101236.22;5075634;28;20051;-30
2021/06/05 10:57:24;;;;;;;3.78;0.73;;;;;;;18.86;47.27;101237.22;5075662;28;20024;-30
2021/06/05 10:59:58;;;;;;;5.03;0.65;;;;;;;18.83;47.58;101226.66;5076216;28;20536;-30
2021/06/05 11:02:40;;;;;;;1.98;0.25;;;;;;;18.89;47.43;101221.28;5075141;28;20116;-31
2021/06/05 11:05:19;;;;;;;3.63;1.35;;;;;;;18.88;47.04;101220.41;5075516;28;20055;-32
2021/06/05 11:07:46;;;;;;;6.40;1.77;;;;;;;18.80;47.64;101219.63;5076079;28;20104;-32
2021/06/05 11:10:48;;;;;;;3.58;1.38;;;;;;;18.76;47.69;101214.41;5076093;28;20394;-32
2021/06/05 11:13:35;;;;;;;3.97;1.02;;;;;;;18.77;47.41;101211.72;5075750;28;20028;-31
2021/06/05 11:16:05;;;;;;;0.70;0.70;;;;;;;18.86;47.08;101210.75;5065529;28;20028;-31
2021/06/05 11:18:42;;;;;;;4.15;0.73;;;;;;;18.84;47.16;101208.09;5064301;28;20125;-30
2021/06/05 11:21:24;;;;;;;1.20;0.77;;;;;;;18.85;47.13;101209.88;5056034;28;20477;-30
2021/06/05 11:24:22;;;;;;;12.70;0.98;;;;;;;18.87;47.18;101207.19;5059450;28;20028;-31
2021/06/05 11:26:51;;;;;;;16.83;2.17;;;;;;;18.78;47.53;101205.53;5073801;28;20463;-31
2021/06/05 11:29:21;;;;;;;0.88;0.75;;;;;;;18.71;47.67;101201.22;5075701;28;20032;-30
2021/06/05 11:31:57;;;;;;;0.77;0.45;;;;;;;18.67;47.62;101202.09;5075484;28;20122;-31
2021/06/05 11:34:29;;;;;;;3.20;1.05;;;;;;;18.76;47.62;101202.03;5074609;28;20085;-30
2021/06/05 11:37:07;;;;;;;0.70;0.13;;;;;;;18.76;47.57;101209.09;5075528;28;20040;-33
2021/06/05 11:39:34;;;;;;;2.92;0.93;;;;;;;18.71;47.51;101205.63;5074833;28;20043;-31